sensor_id;sensor_type;location;lat;lon;timestamp;P1;durP1;ratioP1;P2;durP2;ratioP2
22644;SDS011;11489;50.834;6.752;2023-05-09T00:01:20;13.93;;;8.30;;
22644;SDS011;11489;50.834;6.752;2023-05-09T00:03:46;12.57;;;8.43;;
22644;SDS011;11489;50.834;6.752;2023-05-09T00:06:12;12.35;;;8.82;;
22644;SDS011;11489;50.834;6.752;2023-05-09T00:08:39;11.25;;;8.95;;
22644;SDS011;11489;50.834;6.752;2023-05-09T00:11:05;12.90;;;8.63;;
22644;SDS011;11489;50.834;6.752;2023-05-09T00:13:31;10.90;;;8.43;;
22644;SDS011;11489;50.834;6.752;2023-05-09T00:15:58;11.40;;;9.60;;
22644;SDS011;11489;50.834;6.752;2023-05-09T00:18:23;11.43;;;8.70;;
22644;SDS011;11489;50.834;6.752;2023-05-09T00:20:49;11.95;;;9.20;;
22644;SDS011;11489;50.834;6.752;2023-05-09T00:23:15;11.18;;;9.23;;
22644;SDS011;11489;50.834;6.752;2023-05-09T00:25:42;13.10;;;8.68;;
22644;SDS011;11489;50.834;6.752;2023-05-09T00:28:07;12.48;;;9.45;;
22644;SDS011;11489;50.834;6.752;2023-05-09T00:30:33;13.13;;;9.20;;
22644;SDS011;11489;50.834;6.752;2023-05-09T00:32:59;12.77;;;8.52;;
22644;SDS011;11489;50.834;6.752;2023-05-09T00:35:25;12.35;;;8.80;;
22644;SDS011;11489;50.834;6.752;2023-05-09T00:37:50;12.82;;;8.52;;
22644;SDS011;11489;50.834;6.752;2023-05-09T00:40:16;13.45;;;9.18;;
22644;SDS011;11489;50.834;6.752;2023-05-09T00:42:42;13.00;;;9.65;;
22644;SDS011;11489;50.834;6.752;2023-05-09T00:45:08;12.32;;;9.38;;
22644;SDS011;11489;50.834;6.752;2023-05-09T00:47:34;12.65;;;9.32;;
22644;SDS011;11489;50.834;6.752;2023-05-09T00:50:00;10.93;;;8.85;;
22644;SDS011;11489;50.834;6.752;2023-05-09T00:52:26;13.68;;;9.50;;
22644;SDS011;11489;50.834;6.752;2023-05-09T00:54:52;12.13;;;8.95;;
22644;SDS011;11489;50.834;6.752;2023-05-09T00:57:19;10.77;;;9.13;;
22644;SDS011;11489;50.834;6.752;2023-05-09T00:59:48;12.63;;;9.52;;
22644;SDS011;11489;50.834;6.752;2023-05-09T01:02:14;12.63;;;9.38;;
22644;SDS011;11489;50.834;6.752;2023-05-09T01:04:43;12.05;;;9.00;;
22644;SDS011;11489;50.834;6.752;2023-05-09T01:07:18;13.30;;;9.25;;
22644;SDS011;11489;50.834;6.752;2023-05-09T01:09:56;10.55;;;8.45;;
22644;SDS011;11489;50.834;6.752;2023-05-09T01:12:46;14.75;;;9.27;;
22644;SDS011;11489;50.834;6.752;2023-05-09T01:15:44;13.80;;;9.95;;
22644;SDS011;11489;50.834;6.752;2023-05-09T01:18:24;14.68;;;9.38;;
22644;SDS011;11489;50.834;6.752;2023-05-09T01:21:19;13.65;;;9.98;;
22644;SDS011;11489;50.834;6.752;2023-05-09T01:23:53;13.80;;;9.73;;
22644;SDS011;11489;50.834;6.752;2023-05-09T01:32:32;13.32;;;9.27;;
22644;SDS011;11489;50.834;6.752;2023-05-09T01:35:02;16.23;;;11.02;;
22644;SDS011;11489;50.834;6.752;2023-05-09T01:37:33;20.40;;;11.00;;
22644;SDS011;11489;50.834;6.752;2023-05-09T01:40:05;15.05;;;10.48;;
22644;SDS011;11489;50.834;6.752;2023-05-09T01:42:35;14.55;;;10.00;;
22644;SDS011;11489;50.834;6.752;2023-05-09T01:45:07;16.17;;;11.30;;
22644;SDS011;11489;50.834;6.752;2023-05-09T01:47:34;17.42;;;10.90;;
22644;SDS011;11489;50.834;6.752;2023-05-09T01:50:02;14.88;;;11.00;;
22644;SDS011;11489;50.834;6.752;2023-05-09T01:52:30;14.25;;;10.85;;
22644;SDS011;11489;50.834;6.752;2023-05-09T01:54:58;15.70;;;10.27;;
22644;SDS011;11489;50.834;6.752;2023-05-09T01:57:26;13.98;;;10.48;;
22644;SDS011;11489;50.834;6.752;2023-05-09T01:59:54;15.48;;;10.35;;
22644;SDS011;11489;50.834;6.752;2023-05-09T02:02:21;13.68;;;9.70;;
22644;SDS011;11489;50.834;6.752;2023-05-09T02:04:48;13.88;;;9.98;;
22644;SDS011;11489;50.834;6.752;2023-05-09T02:07:14;14.52;;;10.55;;
22644;SDS011;11489;50.834;6.752;2023-05-09T02:09:40;13.73;;;10.30;;
22644;SDS011;11489;50.834;6.752;2023-05-09T02:12:06;15.18;;;11.07;;
22644;SDS011;11489;50.834;6.752;2023-05-09T02:14:32;14.23;;;10.73;;
22644;SDS011;11489;50.834;6.752;2023-05-09T02:16:59;17.15;;;11.00;;
22644;SDS011;11489;50.834;6.752;2023-05-09T02:19:30;16.23;;;11.27;;
22644;SDS011;11489;50.834;6.752;2023-05-09T02:21:59;14.27;;;11.57;;
22644;SDS011;11489;50.834;6.752;2023-05-09T02:24:26;15.95;;;11.80;;
22644;SDS011;11489;50.834;6.752;2023-05-09T02:26:53;16.20;;;11.63;;
22644;SDS011;11489;50.834;6.752;2023-05-09T02:29:19;14.48;;;10.98;;
22644;SDS011;11489;50.834;6.752;2023-05-09T02:31:48;18.15;;;11.93;;
22644;SDS011;11489;50.834;6.752;2023-05-09T02:34:15;16.60;;;12.15;;
22644;SDS011;11489;50.834;6.752;2023-05-09T02:36:41;17.15;;;12.30;;
22644;SDS011;11489;50.834;6.752;2023-05-09T02:39:08;16.90;;;12.93;;
22644;SDS011;11489;50.834;6.752;2023-05-09T02:41:33;19.27;;;12.85;;
22644;SDS011;11489;50.834;6.752;2023-05-09T02:43:59;16.52;;;12.73;;
22644;SDS011;11489;50.834;6.752;2023-05-09T02:46:25;19.77;;;12.18;;
22644;SDS011;11489;50.834;6.752;2023-05-09T02:48:50;17.95;;;13.10;;
22644;SDS011;11489;50.834;6.752;2023-05-09T02:51:16;16.10;;;12.18;;
22644;SDS011;11489;50.834;6.752;2023-05-09T02:53:42;16.45;;;12.40;;
22644;SDS011;11489;50.834;6.752;2023-05-09T02:56:07;17.55;;;12.98;;
22644;SDS011;11489;50.834;6.752;2023-05-09T02:58:34;19.83;;;12.98;;
22644;SDS011;11489;50.834;6.752;2023-05-09T03:01:00;22.85;;;12.98;;
22644;SDS011;11489;50.834;6.752;2023-05-09T03:03:26;19.02;;;12.93;;
22644;SDS011;11489;50.834;6.752;2023-05-09T03:05:51;17.83;;;12.48;;
22644;SDS011;11489;50.834;6.752;2023-05-09T03:08:17;16.35;;;12.23;;
22644;SDS011;11489;50.834;6.752;2023-05-09T03:10:43;17.80;;;12.13;;
22644;SDS011;11489;50.834;6.752;2023-05-09T03:13:08;19.23;;;12.70;;
22644;SDS011;11489;50.834;6.752;2023-05-09T03:15:34;18.15;;;12.75;;
22644;SDS011;11489;50.834;6.752;2023-05-09T03:18:00;19.77;;;12.63;;
22644;SDS011;11489;50.834;6.752;2023-05-09T03:20:26;20.15;;;12.75;;
22644;SDS011;11489;50.834;6.752;2023-05-09T03:22:52;17.52;;;13.40;;
22644;SDS011;11489;50.834;6.752;2023-05-09T03:25:17;19.13;;;13.43;;
22644;SDS011;11489;50.834;6.752;2023-05-09T03:27:43;20.35;;;14.45;;
22644;SDS011;11489;50.834;6.752;2023-05-09T03:30:09;24.25;;;14.50;;
22644;SDS011;11489;50.834;6.752;2023-05-09T03:32:35;21.27;;;14.07;;
22644;SDS011;11489;50.834;6.752;2023-05-09T03:35:00;19.27;;;13.27;;
22644;SDS011;11489;50.834;6.752;2023-05-09T03:37:26;21.45;;;14.38;;
22644;SDS011;11489;50.834;6.752;2023-05-09T03:39:51;20.15;;;13.65;;
22644;SDS011;11489;50.834;6.752;2023-05-09T03:42:17;20.23;;;13.98;;
22644;SDS011;11489;50.834;6.752;2023-05-09T03:44:43;20.98;;;13.73;;
22644;SDS011;11489;50.834;6.752;2023-05-09T03:47:08;23.30;;;13.95;;
22644;SDS011;11489;50.834;6.752;2023-05-09T03:49:34;21.15;;;14.20;;
22644;SDS011;11489;50.834;6.752;2023-05-09T03:52:00;20.67;;;14.85;;
22644;SDS011;11489;50.834;6.752;2023-05-09T03:54:26;22.08;;;14.73;;
22644;SDS011;11489;50.834;6.752;2023-05-09T03:56:52;21.98;;;14.45;;
22644;SDS011;11489;50.834;6.752;2023-05-09T03:59:18;20.25;;;14.35;;
22644;SDS011;11489;50.834;6.752;2023-05-09T04:01:44;22.40;;;15.35;;
22644;SDS011;11489;50.834;6.752;2023-05-09T04:04:10;22.60;;;14.48;;
22644;SDS011;11489;50.834;6.752;2023-05-09T04:06:36;22.23;;;14.55;;
22644;SDS011;11489;50.834;6.752;2023-05-09T04:09:02;18.77;;;14.05;;
22644;SDS011;11489;50.834;6.752;2023-05-09T04:11:27;22.35;;;15.00;;
22644;SDS011;11489;50.834;6.752;2023-05-09T04:13:53;19.38;;;14.10;;
22644;SDS011;11489;50.834;6.752;2023-05-09T04:16:19;21.77;;;14.45;;
22644;SDS011;11489;50.834;6.752;2023-05-09T04:18:44;22.13;;;14.95;;
22644;SDS011;11489;50.834;6.752;2023-05-09T04:21:10;22.52;;;15.48;;
22644;SDS011;11489;50.834;6.752;2023-05-09T04:23:35;22.98;;;14.77;;
22644;SDS011;11489;50.834;6.752;2023-05-09T04:26:02;25.63;;;15.55;;
22644;SDS011;11489;50.834;6.752;2023-05-09T04:28:28;22.27;;;16.10;;
22644;SDS011;11489;50.834;6.752;2023-05-09T04:30:54;20.90;;;15.35;;
22644;SDS011;11489;50.834;6.752;2023-05-09T04:33:20;20.80;;;15.55;;
22644;SDS011;11489;50.834;6.752;2023-05-09T04:35:46;21.52;;;15.60;;
22644;SDS011;11489;50.834;6.752;2023-05-09T04:38:12;25.02;;;15.90;;
22644;SDS011;11489;50.834;6.752;2023-05-09T04:40:38;22.73;;;15.85;;
22644;SDS011;11489;50.834;6.752;2023-05-09T04:43:04;24.80;;;16.02;;
22644;SDS011;11489;50.834;6.752;2023-05-09T04:45:30;21.75;;;15.65;;
22644;SDS011;11489;50.834;6.752;2023-05-09T04:47:55;22.80;;;16.08;;
22644;SDS011;11489;50.834;6.752;2023-05-09T04:50:21;22.73;;;15.27;;
22644;SDS011;11489;50.834;6.752;2023-05-09T04:52:47;23.60;;;15.85;;
22644;SDS011;11489;50.834;6.752;2023-05-09T04:55:12;23.30;;;16.42;;
22644;SDS011;11489;50.834;6.752;2023-05-09T04:57:38;24.63;;;16.48;;
22644;SDS011;11489;50.834;6.752;2023-05-09T05:00:04;24.10;;;16.80;;
22644;SDS011;11489;50.834;6.752;2023-05-09T05:02:31;23.60;;;16.33;;
22644;SDS011;11489;50.834;6.752;2023-05-09T05:04:57;23.85;;;16.35;;
22644;SDS011;11489;50.834;6.752;2023-05-09T05:07:23;23.35;;;16.48;;
22644;SDS011;11489;50.834;6.752;2023-05-09T05:09:48;26.50;;;16.88;;
22644;SDS011;11489;50.834;6.752;2023-05-09T05:12:14;22.08;;;15.73;;
22644;SDS011;11489;50.834;6.752;2023-05-09T05:14:40;21.30;;;15.80;;
22644;SDS011;11489;50.834;6.752;2023-05-09T05:17:05;24.10;;;16.55;;
22644;SDS011;11489;50.834;6.752;2023-05-09T05:19:32;22.85;;;16.10;;
22644;SDS011;11489;50.834;6.752;2023-05-09T05:21:58;25.08;;;17.10;;
22644;SDS011;11489;50.834;6.752;2023-05-09T05:24:23;23.20;;;16.60;;
22644;SDS011;11489;50.834;6.752;2023-05-09T05:26:49;22.77;;;15.98;;
22644;SDS011;11489;50.834;6.752;2023-05-09T05:29:15;24.42;;;16.98;;
22644;SDS011;11489;50.834;6.752;2023-05-09T05:31:41;25.40;;;17.52;;
22644;SDS011;11489;50.834;6.752;2023-05-09T05:34:07;24.05;;;16.73;;
22644;SDS011;11489;50.834;6.752;2023-05-09T05:36:32;23.35;;;16.33;;
22644;SDS011;11489;50.834;6.752;2023-05-09T05:38:58;24.63;;;16.60;;
22644;SDS011;11489;50.834;6.752;2023-05-09T05:41:24;23.35;;;16.92;;
22644;SDS011;11489;50.834;6.752;2023-05-09T05:43:50;21.88;;;16.13;;
22644;SDS011;11489;50.834;6.752;2023-05-09T05:46:15;22.70;;;16.88;;
22644;SDS011;11489;50.834;6.752;2023-05-09T05:48:41;23.23;;;16.40;;
22644;SDS011;11489;50.834;6.752;2023-05-09T05:51:07;24.50;;;16.55;;
22644;SDS011;11489;50.834;6.752;2023-05-09T05:53:32;21.33;;;16.17;;
22644;SDS011;11489;50.834;6.752;2023-05-09T05:55:58;22.25;;;16.50;;
22644;SDS011;11489;50.834;6.752;2023-05-09T05:58:24;22.65;;;15.27;;
22644;SDS011;11489;50.834;6.752;2023-05-09T06:00:51;21.80;;;15.65;;
22644;SDS011;11489;50.834;6.752;2023-05-09T06:03:16;21.98;;;16.35;;
22644;SDS011;11489;50.834;6.752;2023-05-09T06:05:42;20.70;;;15.55;;
22644;SDS011;11489;50.834;6.752;2023-05-09T06:08:08;21.42;;;15.82;;
22644;SDS011;11489;50.834;6.752;2023-05-09T06:10:34;22.95;;;15.35;;
22644;SDS011;11489;50.834;6.752;2023-05-09T06:13:00;19.30;;;15.50;;
22644;SDS011;11489;50.834;6.752;2023-05-09T06:15:25;18.88;;;14.10;;
22644;SDS011;11489;50.834;6.752;2023-05-09T06:17:51;18.60;;;14.18;;
22644;SDS011;11489;50.834;6.752;2023-05-09T06:20:17;20.38;;;13.10;;
22644;SDS011;11489;50.834;6.752;2023-05-09T06:22:43;17.63;;;13.32;;
22644;SDS011;11489;50.834;6.752;2023-05-09T06:25:09;15.35;;;11.90;;
22644;SDS011;11489;50.834;6.752;2023-05-09T06:27:34;15.75;;;11.50;;
22644;SDS011;11489;50.834;6.752;2023-05-09T06:30:00;14.63;;;11.60;;
22644;SDS011;11489;50.834;6.752;2023-05-09T06:32:25;15.10;;;11.65;;
22644;SDS011;11489;50.834;6.752;2023-05-09T06:34:51;15.50;;;11.65;;
22644;SDS011;11489;50.834;6.752;2023-05-09T06:37:17;13.65;;;10.85;;
22644;SDS011;11489;50.834;6.752;2023-05-09T06:39:43;13.10;;;10.25;;
22644;SDS011;11489;50.834;6.752;2023-05-09T06:42:08;11.90;;;9.23;;
22644;SDS011;11489;50.834;6.752;2023-05-09T06:44:34;11.43;;;9.38;;
22644;SDS011;11489;50.834;6.752;2023-05-09T06:46:59;11.07;;;8.55;;
22644;SDS011;11489;50.834;6.752;2023-05-09T06:49:25;10.32;;;8.35;;
22644;SDS011;11489;50.834;6.752;2023-05-09T06:51:51;11.18;;;7.80;;
22644;SDS011;11489;50.834;6.752;2023-05-09T06:54:17;10.23;;;6.57;;
22644;SDS011;11489;50.834;6.752;2023-05-09T06:56:42;6.88;;;5.85;;
22644;SDS011;11489;50.834;6.752;2023-05-09T06:59:08;5.30;;;4.40;;
22644;SDS011;11489;50.834;6.752;2023-05-09T07:01:38;5.85;;;4.82;;
22644;SDS011;11489;50.834;6.752;2023-05-09T07:04:04;5.85;;;4.22;;
22644;SDS011;11489;50.834;6.752;2023-05-09T07:06:30;5.05;;;4.45;;
22644;SDS011;11489;50.834;6.752;2023-05-09T07:08:55;4.53;;;4.13;;
22644;SDS011;11489;50.834;6.752;2023-05-09T07:11:21;5.13;;;4.43;;
22644;SDS011;11489;50.834;6.752;2023-05-09T07:13:47;4.68;;;4.22;;
22644;SDS011;11489;50.834;6.752;2023-05-09T07:16:13;5.25;;;4.60;;
22644;SDS011;11489;50.834;6.752;2023-05-09T07:18:38;4.25;;;3.78;;
22644;SDS011;11489;50.834;6.752;2023-05-09T07:21:04;7.85;;;4.40;;
22644;SDS011;11489;50.834;6.752;2023-05-09T07:23:30;4.88;;;4.10;;
22644;SDS011;11489;50.834;6.752;2023-05-09T07:25:56;5.20;;;4.05;;
22644;SDS011;11489;50.834;6.752;2023-05-09T07:28:22;4.30;;;3.60;;
22644;SDS011;11489;50.834;6.752;2023-05-09T07:30:48;5.78;;;4.00;;
22644;SDS011;11489;50.834;6.752;2023-05-09T07:33:14;4.45;;;3.70;;
22644;SDS011;11489;50.834;6.752;2023-05-09T07:35:40;4.65;;;4.13;;
22644;SDS011;11489;50.834;6.752;2023-05-09T07:38:05;4.40;;;3.90;;
22644;SDS011;11489;50.834;6.752;2023-05-09T07:40:31;4.07;;;3.65;;
22644;SDS011;11489;50.834;6.752;2023-05-09T07:43:01;5.50;;;3.70;;
22644;SDS011;11489;50.834;6.752;2023-05-09T07:45:26;5.50;;;3.42;;
22644;SDS011;11489;50.834;6.752;2023-05-09T07:47:52;4.85;;;3.50;;
22644;SDS011;11489;50.834;6.752;2023-05-09T07:50:18;5.72;;;3.90;;
22644;SDS011;11489;50.834;6.752;2023-05-09T07:52:43;6.10;;;3.63;;
22644;SDS011;11489;50.834;6.752;2023-05-09T07:55:09;4.28;;;3.70;;
22644;SDS011;11489;50.834;6.752;2023-05-09T07:57:36;4.93;;;3.58;;
22644;SDS011;11489;50.834;6.752;2023-05-09T08:00:03;4.53;;;3.60;;
22644;SDS011;11489;50.834;6.752;2023-05-09T08:02:30;4.43;;;3.80;;
22644;SDS011;11489;50.834;6.752;2023-05-09T08:04:56;3.63;;;3.33;;
22644;SDS011;11489;50.834;6.752;2023-05-09T08:07:22;4.95;;;3.47;;
22644;SDS011;11489;50.834;6.752;2023-05-09T08:09:47;4.70;;;3.20;;
22644;SDS011;11489;50.834;6.752;2023-05-09T08:12:13;3.50;;;3.20;;
22644;SDS011;11489;50.834;6.752;2023-05-09T08:14:39;5.93;;;3.20;;
22644;SDS011;11489;50.834;6.752;2023-05-09T08:17:05;3.88;;;3.17;;
22644;SDS011;11489;50.834;6.752;2023-05-09T08:19:31;3.83;;;3.30;;
22644;SDS011;11489;50.834;6.752;2023-05-09T08:21:56;4.70;;;2.80;;
22644;SDS011;11489;50.834;6.752;2023-05-09T08:24:22;5.93;;;3.13;;
22644;SDS011;11489;50.834;6.752;2023-05-09T08:26:47;3.72;;;3.25;;
22644;SDS011;11489;50.834;6.752;2023-05-09T08:29:13;3.97;;;3.10;;
22644;SDS011;11489;50.834;6.752;2023-05-09T08:31:39;2.83;;;2.63;;
22644;SDS011;11489;50.834;6.752;2023-05-09T08:34:05;3.53;;;3.20;;
22644;SDS011;11489;50.834;6.752;2023-05-09T08:36:30;3.42;;;2.78;;
22644;SDS011;11489;50.834;6.752;2023-05-09T08:38:56;3.50;;;2.60;;
22644;SDS011;11489;50.834;6.752;2023-05-09T08:41:23;4.13;;;2.97;;
22644;SDS011;11489;50.834;6.752;2023-05-09T08:43:52;3.05;;;2.75;;
22644;SDS011;11489;50.834;6.752;2023-05-09T08:46:21;3.92;;;2.80;;
22644;SDS011;11489;50.834;6.752;2023-05-09T08:48:51;3.58;;;2.47;;
22644;SDS011;11489;50.834;6.752;2023-05-09T08:51:18;3.35;;;2.65;;
22644;SDS011;11489;50.834;6.752;2023-05-09T08:53:44;2.95;;;2.65;;
22644;SDS011;11489;50.834;6.752;2023-05-09T08:56:10;3.05;;;2.75;;
22644;SDS011;11489;50.834;6.752;2023-05-09T08:58:36;5.07;;;2.88;;
22644;SDS011;11489;50.834;6.752;2023-05-09T09:01:02;3.55;;;2.55;;
22644;SDS011;11489;50.834;6.752;2023-05-09T09:03:32;2.85;;;2.40;;
22644;SDS011;11489;50.834;6.752;2023-05-09T09:05:57;2.92;;;2.42;;
22644;SDS011;11489;50.834;6.752;2023-05-09T09:08:25;3.17;;;2.60;;
22644;SDS011;11489;50.834;6.752;2023-05-09T09:10:51;2.60;;;2.35;;
22644;SDS011;11489;50.834;6.752;2023-05-09T09:13:18;2.97;;;2.67;;
22644;SDS011;11489;50.834;6.752;2023-05-09T09:15:45;2.67;;;2.45;;
22644;SDS011;11489;50.834;6.752;2023-05-09T09:18:18;4.88;;;2.80;;
22644;SDS011;11489;50.834;6.752;2023-05-09T09:20:48;3.88;;;2.38;;
22644;SDS011;11489;50.834;6.752;2023-05-09T09:23:18;3.85;;;2.15;;
22644;SDS011;11489;50.834;6.752;2023-05-09T09:25:47;2.58;;;2.33;;
22644;SDS011;11489;50.834;6.752;2023-05-09T09:28:13;2.58;;;2.38;;
22644;SDS011;11489;50.834;6.752;2023-05-09T09:30:57;3.10;;;2.78;;
22644;SDS011;11489;50.834;6.752;2023-05-09T09:33:24;3.00;;;2.50;;
22644;SDS011;11489;50.834;6.752;2023-05-09T09:35:51;4.07;;;2.90;;
22644;SDS011;11489;50.834;6.752;2023-05-09T09:38:22;2.83;;;2.50;;
22644;SDS011;11489;50.834;6.752;2023-05-09T09:40:55;2.78;;;2.00;;
22644;SDS011;11489;50.834;6.752;2023-05-09T09:43:28;7.50;;;2.10;;
22644;SDS011;11489;50.834;6.752;2023-05-09T09:45:55;5.38;;;2.45;;
22644;SDS011;11489;50.834;6.752;2023-05-09T09:48:31;2.70;;;2.35;;
22644;SDS011;11489;50.834;6.752;2023-05-09T09:51:17;2.95;;;2.20;;
22644;SDS011;11489;50.834;6.752;2023-05-09T09:53:43;3.05;;;2.45;;
22644;SDS011;11489;50.834;6.752;2023-05-09T09:56:09;3.10;;;2.20;;
22644;SDS011;11489;50.834;6.752;2023-05-09T09:58:35;3.78;;;2.30;;
22644;SDS011;11489;50.834;6.752;2023-05-09T10:01:04;2.22;;;1.92;;
22644;SDS011;11489;50.834;6.752;2023-05-09T10:03:37;2.20;;;2.00;;
22644;SDS011;11489;50.834;6.752;2023-05-09T10:06:10;2.95;;;1.95;;
22644;SDS011;11489;50.834;6.752;2023-05-09T10:08:38;2.10;;;1.92;;
22644;SDS011;11489;50.834;6.752;2023-05-09T10:11:04;3.35;;;2.13;;
22644;SDS011;11489;50.834;6.752;2023-05-09T10:13:30;2.92;;;2.22;;
22644;SDS011;11489;50.834;6.752;2023-05-09T10:15:59;4.00;;;2.40;;
22644;SDS011;11489;50.834;6.752;2023-05-09T10:18:26;3.22;;;2.17;;
22644;SDS011;11489;50.834;6.752;2023-05-09T10:20:54;2.63;;;1.92;;
22644;SDS011;11489;50.834;6.752;2023-05-09T10:23:22;3.20;;;2.28;;
22644;SDS011;11489;50.834;6.752;2023-05-09T10:26:35;2.95;;;2.20;;
22644;SDS011;11489;50.834;6.752;2023-05-09T10:28:44;2.67;;;2.13;;
22644;SDS011;11489;50.834;6.752;2023-05-09T10:31:16;3.28;;;2.10;;
22644;SDS011;11489;50.834;6.752;2023-05-09T10:33:51;3.17;;;2.25;;
22644;SDS011;11489;50.834;6.752;2023-05-09T10:36:20;3.05;;;2.20;;
22644;SDS011;11489;50.834;6.752;2023-05-09T10:38:48;2.95;;;2.15;;
22644;SDS011;11489;50.834;6.752;2023-05-09T10:41:15;5.32;;;2.40;;
22644;SDS011;11489;50.834;6.752;2023-05-09T10:43:43;3.15;;;2.08;;
22644;SDS011;11489;50.834;6.752;2023-05-09T10:46:09;3.20;;;2.30;;
22644;SDS011;11489;50.834;6.752;2023-05-09T10:48:37;3.70;;;2.35;;
22644;SDS011;11489;50.834;6.752;2023-05-09T10:51:04;4.38;;;2.50;;
22644;SDS011;11489;50.834;6.752;2023-05-09T10:56:06;3.45;;;2.60;;
22644;SDS011;11489;50.834;6.752;2023-05-09T10:58:32;3.70;;;2.53;;
22644;SDS011;11489;50.834;6.752;2023-05-09T11:01:04;4.43;;;2.67;;
22644;SDS011;11489;50.834;6.752;2023-05-09T11:09:23;2.47;;;2.20;;
22644;SDS011;11489;50.834;6.752;2023-05-09T11:11:56;2.22;;;1.90;;
22644;SDS011;11489;50.834;6.752;2023-05-09T11:14:28;3.88;;;2.60;;
22644;SDS011;11489;50.834;6.752;2023-05-09T11:17:01;3.72;;;2.28;;
22644;SDS011;11489;50.834;6.752;2023-05-09T11:22:18;2.72;;;2.08;;
22644;SDS011;11489;50.834;6.752;2023-05-09T11:25:13;4.03;;;2.33;;
22644;SDS011;11489;50.834;6.752;2023-05-09T11:30:14;2.60;;;1.83;;
22644;SDS011;11489;50.834;6.752;2023-05-09T11:32:42;2.97;;;2.03;;
22644;SDS011;11489;50.834;6.752;2023-05-09T11:35:10;3.78;;;2.00;;
22644;SDS011;11489;50.834;6.752;2023-05-09T11:37:48;1.88;;;1.77;;
22644;SDS011;11489;50.834;6.752;2023-05-09T11:40:17;2.55;;;1.90;;
22644;SDS011;11489;50.834;6.752;2023-05-09T11:42:45;2.10;;;1.90;;
22644;SDS011;11489;50.834;6.752;2023-05-09T11:45:13;2.63;;;1.88;;
22644;SDS011;11489;50.834;6.752;2023-05-09T11:47:39;2.85;;;1.92;;
22644;SDS011;11489;50.834;6.752;2023-05-09T11:50:06;2.03;;;1.70;;
22644;SDS011;11489;50.834;6.752;2023-05-09T11:52:34;2.13;;;1.80;;
22644;SDS011;11489;50.834;6.752;2023-05-09T11:55:00;3.10;;;2.10;;
22644;SDS011;11489;50.834;6.752;2023-05-09T11:57:27;2.00;;;1.77;;
22644;SDS011;11489;50.834;6.752;2023-05-09T11:59:53;2.90;;;1.77;;
22644;SDS011;11489;50.834;6.752;2023-05-09T12:02:19;3.92;;;1.95;;
22644;SDS011;11489;50.834;6.752;2023-05-09T12:04:46;3.05;;;2.10;;
22644;SDS011;11489;50.834;6.752;2023-05-09T12:07:12;2.35;;;2.00;;
22644;SDS011;11489;50.834;6.752;2023-05-09T12:09:40;2.10;;;1.90;;
22644;SDS011;11489;50.834;6.752;2023-05-09T12:12:08;5.38;;;2.00;;
22644;SDS011;11489;50.834;6.752;2023-05-09T12:14:37;2.33;;;2.05;;
22644;SDS011;11489;50.834;6.752;2023-05-09T12:17:05;1.83;;;1.52;;
22644;SDS011;11489;50.834;6.752;2023-05-09T12:19:31;2.00;;;1.80;;
22644;SDS011;11489;50.834;6.752;2023-05-09T12:21:57;2.58;;;2.15;;
22644;SDS011;11489;50.834;6.752;2023-05-09T12:24:27;2.53;;;2.00;;
22644;SDS011;11489;50.834;6.752;2023-05-09T12:26:54;3.22;;;2.10;;
22644;SDS011;11489;50.834;6.752;2023-05-09T12:29:21;7.18;;;1.95;;
22644;SDS011;11489;50.834;6.752;2023-05-09T12:31:48;2.92;;;1.98;;
22644;SDS011;11489;50.834;6.752;2023-05-09T12:34:14;2.35;;;2.00;;
22644;SDS011;11489;50.834;6.752;2023-05-09T12:36:43;2.92;;;2.00;;
22644;SDS011;11489;50.834;6.752;2023-05-09T12:39:15;3.20;;;1.85;;
22644;SDS011;11489;50.834;6.752;2023-05-09T12:41:45;2.28;;;1.98;;
22644;SDS011;11489;50.834;6.752;2023-05-09T12:44:22;2.83;;;2.00;;
22644;SDS011;11489;50.834;6.752;2023-05-09T12:46:55;2.33;;;1.83;;
22644;SDS011;11489;50.834;6.752;2023-05-09T12:49:25;2.35;;;1.83;;
22644;SDS011;11489;50.834;6.752;2023-05-09T12:51:51;2.95;;;2.10;;
22644;SDS011;11489;50.834;6.752;2023-05-09T12:54:21;1.90;;;1.80;;
22644;SDS011;11489;50.834;6.752;2023-05-09T12:56:50;2.13;;;1.65;;
22644;SDS011;11489;50.834;6.752;2023-05-09T12:59:23;3.15;;;1.77;;
22644;SDS011;11489;50.834;6.752;2023-05-09T13:01:57;2.47;;;1.63;;
22644;SDS011;11489;50.834;6.752;2023-05-09T13:04:25;2.00;;;1.70;;
22644;SDS011;11489;50.834;6.752;2023-05-09T13:06:52;2.08;;;1.77;;
22644;SDS011;11489;50.834;6.752;2023-05-09T13:09:23;3.25;;;1.67;;
22644;SDS011;11489;50.834;6.752;2023-05-09T13:11:50;3.30;;;1.73;;
22644;SDS011;11489;50.834;6.752;2023-05-09T13:14:17;3.58;;;2.35;;
22644;SDS011;11489;50.834;6.752;2023-05-09T13:16:44;2.00;;;1.80;;
22644;SDS011;11489;50.834;6.752;2023-05-09T13:19:10;1.50;;;1.40;;
22644;SDS011;11489;50.834;6.752;2023-05-09T13:21:36;2.10;;;1.70;;
22644;SDS011;11489;50.834;6.752;2023-05-09T13:24:02;1.90;;;1.70;;
22644;SDS011;11489;50.834;6.752;2023-05-09T13:26:29;2.17;;;1.55;;
22644;SDS011;11489;50.834;6.752;2023-05-09T13:28:55;1.88;;;1.52;;
22644;SDS011;11489;50.834;6.752;2023-05-09T13:31:21;1.90;;;1.65;;
22644;SDS011;11489;50.834;6.752;2023-05-09T13:33:47;2.40;;;1.50;;
22644;SDS011;11489;50.834;6.752;2023-05-09T13:36:13;2.35;;;1.35;;
22644;SDS011;11489;50.834;6.752;2023-05-09T13:38:40;1.60;;;1.48;;
22644;SDS011;11489;50.834;6.752;2023-05-09T13:41:06;1.40;;;1.30;;
22644;SDS011;11489;50.834;6.752;2023-05-09T13:43:32;1.95;;;1.50;;
22644;SDS011;11489;50.834;6.752;2023-05-09T13:45:58;1.88;;;1.60;;
22644;SDS011;11489;50.834;6.752;2023-05-09T13:48:24;3.67;;;2.20;;
22644;SDS011;11489;50.834;6.752;2023-05-09T13:50:50;4.68;;;2.58;;
22644;SDS011;11489;50.834;6.752;2023-05-09T13:53:16;3.65;;;2.20;;
22644;SDS011;11489;50.834;6.752;2023-05-09T13:55:41;2.72;;;2.40;;
22644;SDS011;11489;50.834;6.752;2023-05-09T13:58:07;4.65;;;2.03;;
22644;SDS011;11489;50.834;6.752;2023-05-09T14:00:33;3.90;;;2.47;;
22644;SDS011;11489;50.834;6.752;2023-05-09T14:03:00;6.00;;;2.78;;
22644;SDS011;11489;50.834;6.752;2023-05-09T14:05:27;3.88;;;2.58;;
22644;SDS011;11489;50.834;6.752;2023-05-09T14:07:53;5.60;;;2.50;;
22644;SDS011;11489;50.834;6.752;2023-05-09T14:10:19;3.50;;;2.60;;
22644;SDS011;11489;50.834;6.752;2023-05-09T14:12:44;3.38;;;2.90;;
22644;SDS011;11489;50.834;6.752;2023-05-09T14:15:11;4.45;;;3.03;;
22644;SDS011;11489;50.834;6.752;2023-05-09T14:17:37;3.75;;;2.92;;
22644;SDS011;11489;50.834;6.752;2023-05-09T14:20:04;3.80;;;3.25;;
22644;SDS011;11489;50.834;6.752;2023-05-09T14:22:30;4.18;;;3.45;;
22644;SDS011;11489;50.834;6.752;2023-05-09T14:24:56;4.22;;;3.45;;
22644;SDS011;11489;50.834;6.752;2023-05-09T14:27:22;4.20;;;3.80;;
22644;SDS011;11489;50.834;6.752;2023-05-09T14:29:49;5.07;;;3.80;;
22644;SDS011;11489;50.834;6.752;2023-05-09T14:32:14;5.88;;;4.50;;
22644;SDS011;11489;50.834;6.752;2023-05-09T14:34:40;4.93;;;3.90;;
22644;SDS011;11489;50.834;6.752;2023-05-09T14:37:06;5.43;;;3.97;;
22644;SDS011;11489;50.834;6.752;2023-05-09T14:39:38;5.55;;;3.53;;
22644;SDS011;11489;50.834;6.752;2023-05-09T14:42:08;6.18;;;4.25;;
22644;SDS011;11489;50.834;6.752;2023-05-09T14:44:35;4.43;;;3.90;;
22644;SDS011;11489;50.834;6.752;2023-05-09T14:47:02;4.78;;;4.05;;
22644;SDS011;11489;50.834;6.752;2023-05-09T14:49:28;3.90;;;3.50;;
22644;SDS011;11489;50.834;6.752;2023-05-09T14:51:54;5.38;;;3.80;;
22644;SDS011;11489;50.834;6.752;2023-05-09T14:54:19;4.60;;;4.07;;
22644;SDS011;11489;50.834;6.752;2023-05-09T14:56:45;5.65;;;4.10;;